sensor_id;sensor_type;location;lat;lon;timestamp;P1;durP1;ratioP1;P2;durP2;ratioP2
81627;SDS011;71036;51.102;6.514;2023-10-09T00:00:13;16.57;;;5.30;;
81627;SDS011;71036;51.102;6.514;2023-10-09T00:02:57;16.97;;;6.03;;
81627;SDS011;71036;51.102;6.514;2023-10-09T00:05:26;14.23;;;4.97;;
81627;SDS011;71036;51.102;6.514;2023-10-09T00:08:11;15.13;;;5.57;;
81627;SDS011;71036;51.102;6.514;2023-10-09T00:10:47;12.80;;;5.80;;
81627;SDS011;71036;51.102;6.514;2023-10-09T00:13:25;17.90;;;5.50;;
81627;SDS011;71036;51.102;6.514;2023-10-09T00:15:56;12.93;;;4.87;;
81627;SDS011;71036;51.102;6.514;2023-10-09T00:18:26;13.23;;;5.63;;
81627;SDS011;71036;51.102;6.514;2023-10-09T00:20:55;12.83;;;5.37;;
81627;SDS011;71036;51.102;6.514;2023-10-09T00:23:25;12.53;;;4.80;;
81627;SDS011;71036;51.102;6.514;2023-10-09T00:25:54;11.40;;;5.00;;
81627;SDS011;71036;51.102;6.514;2023-10-09T00:28:41;9.23;;;4.80;;
81627;SDS011;71036;51.102;6.514;2023-10-09T00:31:08;9.87;;;4.10;;
81627;SDS011;71036;51.102;6.514;2023-10-09T00:33:39;15.63;;;5.73;;
81627;SDS011;71036;51.102;6.514;2023-10-09T00:36:05;9.33;;;5.23;;
81627;SDS011;71036;51.102;6.514;2023-10-09T00:38:34;8.20;;;5.00;;
81627;SDS011;71036;51.102;6.514;2023-10-09T00:41:00;14.98;;;6.75;;
81627;SDS011;71036;51.102;6.514;2023-10-09T00:43:35;11.07;;;5.17;;
81627;SDS011;71036;51.102;6.514;2023-10-09T00:46:02;8.10;;;4.90;;
81627;SDS011;71036;51.102;6.514;2023-10-09T00:48:33;14.90;;;5.10;;
81627;SDS011;71036;51.102;6.514;2023-10-09T00:51:02;16.07;;;6.30;;
81627;SDS011;71036;51.102;6.514;2023-10-09T00:53:37;13.67;;;5.60;;
81627;SDS011;71036;51.102;6.514;2023-10-09T00:56:03;11.37;;;4.90;;
81627;SDS011;71036;51.102;6.514;2023-10-09T00:58:54;12.93;;;4.70;;
81627;SDS011;71036;51.102;6.514;2023-10-09T01:01:25;8.57;;;4.43;;
81627;SDS011;71036;51.102;6.514;2023-10-09T01:04:00;11.97;;;5.13;;
81627;SDS011;71036;51.102;6.514;2023-10-09T01:06:35;9.60;;;4.83;;
81627;SDS011;71036;51.102;6.514;2023-10-09T01:09:08;8.37;;;4.43;;
81627;SDS011;71036;51.102;6.514;2023-10-09T01:11:35;12.07;;;4.97;;
81627;SDS011;71036;51.102;6.514;2023-10-09T01:14:12;7.27;;;4.23;;
81627;SDS011;71036;51.102;6.514;2023-10-09T01:16:37;10.50;;;5.10;;
81627;SDS011;71036;51.102;6.514;2023-10-09T01:19:06;8.87;;;4.50;;
81627;SDS011;71036;51.102;6.514;2023-10-09T01:21:38;13.17;;;5.73;;
81627;SDS011;71036;51.102;6.514;2023-10-09T01:24:04;13.60;;;5.20;;
81627;SDS011;71036;51.102;6.514;2023-10-09T01:26:39;8.30;;;5.10;;
81627;SDS011;71036;51.102;6.514;2023-10-09T01:29:12;12.73;;;5.13;;
81627;SDS011;71036;51.102;6.514;2023-10-09T01:31:50;18.17;;;6.37;;
81627;SDS011;71036;51.102;6.514;2023-10-09T01:34:23;12.33;;;5.07;;
81627;SDS011;71036;51.102;6.514;2023-10-09T01:36:53;15.10;;;5.57;;
81627;SDS011;71036;51.102;6.514;2023-10-09T01:39:25;11.37;;;5.40;;
81627;SDS011;71036;51.102;6.514;2023-10-09T01:41:55;10.80;;;4.83;;
81627;SDS011;71036;51.102;6.514;2023-10-09T01:44:24;12.33;;;4.80;;
81627;SDS011;71036;51.102;6.514;2023-10-09T01:46:51;9.73;;;4.70;;
81627;SDS011;71036;51.102;6.514;2023-10-09T01:49:20;20.17;;;5.00;;
81627;SDS011;71036;51.102;6.514;2023-10-09T01:51:54;12.40;;;4.83;;
81627;SDS011;71036;51.102;6.514;2023-10-09T01:54:20;12.10;;;5.00;;
81627;SDS011;71036;51.102;6.514;2023-10-09T01:57:01;8.90;;;4.13;;
81627;SDS011;71036;51.102;6.514;2023-10-09T01:59:39;9.27;;;4.63;;
81627;SDS011;71036;51.102;6.514;2023-10-09T02:02:15;12.10;;;5.10;;
81627;SDS011;71036;51.102;6.514;2023-10-09T02:04:51;13.70;;;4.20;;
81627;SDS011;71036;51.102;6.514;2023-10-09T02:07:49;10.00;;;4.30;;
81627;SDS011;71036;51.102;6.514;2023-10-09T02:10:23;15.43;;;4.90;;
81627;SDS011;71036;51.102;6.514;2023-10-09T02:12:49;11.30;;;5.57;;
81627;SDS011;71036;51.102;6.514;2023-10-09T02:15:22;10.63;;;5.37;;
81627;SDS011;71036;51.102;6.514;2023-10-09T02:18:06;10.17;;;4.30;;
81627;SDS011;71036;51.102;6.514;2023-10-09T02:21:08;9.90;;;3.90;;
81627;SDS011;71036;51.102;6.514;2023-10-09T02:23:33;8.33;;;4.10;;
81627;SDS011;71036;51.102;6.514;2023-10-09T02:26:10;13.57;;;4.60;;
81627;SDS011;71036;51.102;6.514;2023-10-09T02:28:59;10.80;;;5.20;;
81627;SDS011;71036;51.102;6.514;2023-10-09T02:31:28;10.93;;;5.33;;
81627;SDS011;71036;51.102;6.514;2023-10-09T02:34:06;10.57;;;5.97;;
81627;SDS011;71036;51.102;6.514;2023-10-09T02:36:35;13.57;;;5.27;;
81627;SDS011;71036;51.102;6.514;2023-10-09T02:39:06;12.43;;;5.20;;
81627;SDS011;71036;51.102;6.514;2023-10-09T02:41:37;9.97;;;4.53;;
81627;SDS011;71036;51.102;6.514;2023-10-09T02:44:14;14.50;;;5.60;;
81627;SDS011;71036;51.102;6.514;2023-10-09T02:46:40;15.00;;;5.97;;
81627;SDS011;71036;51.102;6.514;2023-10-09T02:49:05;10.20;;;5.40;;
81627;SDS011;71036;51.102;6.514;2023-10-09T02:51:31;9.80;;;5.50;;
81627;SDS011;71036;51.102;6.514;2023-10-09T02:54:06;20.73;;;5.67;;
81627;SDS011;71036;51.102;6.514;2023-10-09T02:56:50;11.30;;;4.90;;
81627;SDS011;71036;51.102;6.514;2023-10-09T02:59:31;15.60;;;5.40;;
81627;SDS011;71036;51.102;6.514;2023-10-09T03:01:56;10.00;;;5.37;;
81627;SDS011;71036;51.102;6.514;2023-10-09T03:04:24;11.93;;;5.73;;
81627;SDS011;71036;51.102;6.514;2023-10-09T03:06:55;9.90;;;5.20;;
81627;SDS011;71036;51.102;6.514;2023-10-09T03:09:22;16.73;;;5.13;;
81627;SDS011;71036;51.102;6.514;2023-10-09T03:11:55;16.90;;;6.77;;
81627;SDS011;71036;51.102;6.514;2023-10-09T03:14:27;16.33;;;5.40;;
81627;SDS011;71036;51.102;6.514;2023-10-09T03:16:53;12.97;;;5.93;;
81627;SDS011;71036;51.102;6.514;2023-10-09T03:19:19;11.67;;;5.30;;
81627;SDS011;71036;51.102;6.514;2023-10-09T03:21:44;16.03;;;5.80;;
81627;SDS011;71036;51.102;6.514;2023-10-09T03:24:11;11.60;;;5.30;;
81627;SDS011;71036;51.102;6.514;2023-10-09T03:26:37;16.50;;;6.90;;
81627;SDS011;71036;51.102;6.514;2023-10-09T03:29:02;11.13;;;5.33;;
81627;SDS011;71036;51.102;6.514;2023-10-09T03:31:31;16.87;;;5.03;;
81627;SDS011;71036;51.102;6.514;2023-10-09T03:33:58;15.57;;;6.37;;
81627;SDS011;71036;51.102;6.514;2023-10-09T03:36:24;14.97;;;6.53;;
81627;SDS011;71036;51.102;6.514;2023-10-09T03:38:51;15.77;;;5.57;;
81627;SDS011;71036;51.102;6.514;2023-10-09T03:41:20;20.13;;;6.47;;
81627;SDS011;71036;51.102;6.514;2023-10-09T03:43:46;12.23;;;5.07;;
81627;SDS011;71036;51.102;6.514;2023-10-09T03:46:11;21.07;;;6.80;;
81627;SDS011;71036;51.102;6.514;2023-10-09T03:48:47;10.70;;;5.70;;
81627;SDS011;71036;51.102;6.514;2023-10-09T03:51:13;13.55;;;6.90;;
81627;SDS011;71036;51.102;6.514;2023-10-09T03:53:46;17.13;;;5.50;;
81627;SDS011;71036;51.102;6.514;2023-10-09T03:56:12;13.27;;;6.37;;
81627;SDS011;71036;51.102;6.514;2023-10-09T03:58:42;22.23;;;6.80;;
81627;SDS011;71036;51.102;6.514;2023-10-09T04:01:10;13.43;;;5.27;;
81627;SDS011;71036;51.102;6.514;2023-10-09T04:03:43;11.63;;;6.17;;
81627;SDS011;71036;51.102;6.514;2023-10-09T04:06:09;18.43;;;6.10;;
81627;SDS011;71036;51.102;6.514;2023-10-09T04:08:36;11.20;;;5.53;;
81627;SDS011;71036;51.102;6.514;2023-10-09T04:11:04;9.27;;;5.70;;
81627;SDS011;71036;51.102;6.514;2023-10-09T04:13:41;12.83;;;5.80;;
81627;SDS011;71036;51.102;6.514;2023-10-09T04:16:06;13.13;;;6.20;;
81627;SDS011;71036;51.102;6.514;2023-10-09T04:18:45;10.60;;;5.73;;
81627;SDS011;71036;51.102;6.514;2023-10-09T04:21:10;16.50;;;7.63;;
81627;SDS011;71036;51.102;6.514;2023-10-09T04:23:43;18.10;;;6.47;;
81627;SDS011;71036;51.102;6.514;2023-10-09T04:26:25;23.90;;;7.70;;
81627;SDS011;71036;51.102;6.514;2023-10-09T04:28:50;13.00;;;6.03;;
81627;SDS011;71036;51.102;6.514;2023-10-09T04:31:18;10.97;;;5.33;;
81627;SDS011;71036;51.102;6.514;2023-10-09T04:33:44;17.90;;;6.10;;
81627;SDS011;71036;51.102;6.514;2023-10-09T04:36:19;15.33;;;6.00;;
81627;SDS011;71036;51.102;6.514;2023-10-09T04:38:44;12.57;;;5.70;;
81627;SDS011;71036;51.102;6.514;2023-10-09T04:41:28;18.10;;;6.30;;
81627;SDS011;71036;51.102;6.514;2023-10-09T04:43:57;16.30;;;6.50;;
81627;SDS011;71036;51.102;6.514;2023-10-09T04:46:42;18.27;;;7.63;;
81627;SDS011;71036;51.102;6.514;2023-10-09T04:49:23;17.40;;;7.10;;
81627;SDS011;71036;51.102;6.514;2023-10-09T04:51:53;15.93;;;7.20;;
81627;SDS011;71036;51.102;6.514;2023-10-09T04:54:32;18.00;;;6.30;;
81627;SDS011;71036;51.102;6.514;2023-10-09T04:57:26;16.93;;;6.73;;
81627;SDS011;71036;51.102;6.514;2023-10-09T04:59:51;15.57;;;6.33;;
81627;SDS011;71036;51.102;6.514;2023-10-09T05:02:17;18.50;;;6.53;;
81627;SDS011;71036;51.102;6.514;2023-10-09T05:04:44;10.57;;;5.70;;
81627;SDS011;71036;51.102;6.514;2023-10-09T05:07:16;14.00;;;5.50;;
81627;SDS011;71036;51.102;6.514;2023-10-09T05:10:10;15.20;;;6.60;;
81627;SDS011;71036;51.102;6.514;2023-10-09T05:12:42;12.67;;;6.30;;
81627;SDS011;71036;51.102;6.514;2023-10-09T05:15:21;10.70;;;5.23;;
81627;SDS011;71036;51.102;6.514;2023-10-09T05:17:51;12.27;;;5.30;;
81627;SDS011;71036;51.102;6.514;2023-10-09T05:20:21;13.70;;;5.90;;
81627;SDS011;71036;51.102;6.514;2023-10-09T05:23:07;13.47;;;6.60;;
81627;SDS011;71036;51.102;6.514;2023-10-09T05:25:51;17.27;;;6.50;;
81627;SDS011;71036;51.102;6.514;2023-10-09T05:28:20;12.43;;;6.00;;
81627;SDS011;71036;51.102;6.514;2023-10-09T05:31:13;15.13;;;5.90;;
81627;SDS011;71036;51.102;6.514;2023-10-09T05:33:58;9.67;;;5.47;;
81627;SDS011;71036;51.102;6.514;2023-10-09T05:36:26;14.00;;;6.93;;
81627;SDS011;71036;51.102;6.514;2023-10-09T05:38:52;14.33;;;5.97;;
81627;SDS011;71036;51.102;6.514;2023-10-09T05:41:35;20.17;;;7.00;;
81627;SDS011;71036;51.102;6.514;2023-10-09T05:44:18;26.23;;;6.00;;
81627;SDS011;71036;51.102;6.514;2023-10-09T05:47:02;15.43;;;6.70;;
81627;SDS011;71036;51.102;6.514;2023-10-09T05:49:46;19.37;;;7.50;;
81627;SDS011;71036;51.102;6.514;2023-10-09T05:52:12;18.97;;;7.00;;
81627;SDS011;71036;51.102;6.514;2023-10-09T05:55:07;13.43;;;5.87;;
81627;SDS011;71036;51.102;6.514;2023-10-09T05:57:52;13.00;;;6.07;;
81627;SDS011;71036;51.102;6.514;2023-10-09T06:00:20;11.97;;;5.47;;
81627;SDS011;71036;51.102;6.514;2023-10-09T06:03:04;16.93;;;6.30;;
81627;SDS011;71036;51.102;6.514;2023-10-09T06:05:55;20.17;;;6.40;;
81627;SDS011;71036;51.102;6.514;2023-10-09T06:08:21;14.47;;;6.77;;
81627;SDS011;71036;51.102;6.514;2023-10-09T06:10:52;20.53;;;7.67;;
81627;SDS011;71036;51.102;6.514;2023-10-09T06:13:36;18.50;;;7.10;;
81627;SDS011;71036;51.102;6.514;2023-10-09T06:16:10;20.53;;;7.03;;
81627;SDS011;71036;51.102;6.514;2023-10-09T06:18:56;22.07;;;6.53;;
81627;SDS011;71036;51.102;6.514;2023-10-09T06:21:40;17.17;;;6.77;;
81627;SDS011;71036;51.102;6.514;2023-10-09T06:24:18;9.67;;;5.63;;
81627;SDS011;71036;51.102;6.514;2023-10-09T06:26:44;18.57;;;6.43;;
81627;SDS011;71036;51.102;6.514;2023-10-09T06:29:36;13.20;;;6.53;;
81627;SDS011;71036;51.102;6.514;2023-10-09T06:32:14;22.47;;;6.50;;
81627;SDS011;71036;51.102;6.514;2023-10-09T06:34:59;19.50;;;6.13;;
81627;SDS011;71036;51.102;6.514;2023-10-09T06:37:42;16.87;;;6.00;;
81627;SDS011;71036;51.102;6.514;2023-10-09T06:40:29;16.27;;;6.27;;
81627;SDS011;71036;51.102;6.514;2023-10-09T06:43:16;14.50;;;6.50;;
81627;SDS011;71036;51.102;6.514;2023-10-09T06:45:42;23.43;;;6.60;;
81627;SDS011;71036;51.102;6.514;2023-10-09T06:48:09;18.93;;;6.23;;
81627;SDS011;71036;51.102;6.514;2023-10-09T06:50:55;9.97;;;5.50;;
81627;SDS011;71036;51.102;6.514;2023-10-09T06:53:21;12.13;;;6.10;;
81627;SDS011;71036;51.102;6.514;2023-10-09T06:55:50;11.40;;;6.20;;
81627;SDS011;71036;51.102;6.514;2023-10-09T06:58:30;17.10;;;6.60;;
81627;SDS011;71036;51.102;6.514;2023-10-09T07:01:06;13.83;;;7.00;;
81627;SDS011;71036;51.102;6.514;2023-10-09T07:03:44;18.50;;;7.83;;
81627;SDS011;71036;51.102;6.514;2023-10-09T07:06:19;17.07;;;7.43;;
81627;SDS011;71036;51.102;6.514;2023-10-09T07:08:51;22.07;;;7.30;;
81627;SDS011;71036;51.102;6.514;2023-10-09T07:11:33;18.47;;;6.17;;
81627;SDS011;71036;51.102;6.514;2023-10-09T07:14:05;15.77;;;7.20;;
81627;SDS011;71036;51.102;6.514;2023-10-09T07:16:56;25.47;;;7.20;;
81627;SDS011;71036;51.102;6.514;2023-10-09T07:19:29;16.83;;;7.70;;
81627;SDS011;71036;51.102;6.514;2023-10-09T07:22:05;19.17;;;7.70;;
81627;SDS011;71036;51.102;6.514;2023-10-09T07:24:41;22.10;;;7.23;;
81627;SDS011;71036;51.102;6.514;2023-10-09T07:27:14;23.43;;;8.30;;
81627;SDS011;71036;51.102;6.514;2023-10-09T07:29:41;26.50;;;8.47;;
81627;SDS011;71036;51.102;6.514;2023-10-09T07:32:15;17.27;;;7.80;;
81627;SDS011;71036;51.102;6.514;2023-10-09T07:34:50;15.17;;;7.87;;
81627;SDS011;71036;51.102;6.514;2023-10-09T07:37:22;15.30;;;7.60;;
81627;SDS011;71036;51.102;6.514;2023-10-09T07:39:51;17.10;;;8.07;;
81627;SDS011;71036;51.102;6.514;2023-10-09T07:42:22;17.30;;;7.17;;
81627;SDS011;71036;51.102;6.514;2023-10-09T07:45:02;13.13;;;7.10;;
81627;SDS011;71036;51.102;6.514;2023-10-09T07:47:50;19.50;;;7.70;;
81627;SDS011;71036;51.102;6.514;2023-10-09T07:50:25;18.10;;;8.00;;
81627;SDS011;71036;51.102;6.514;2023-10-09T07:53:03;15.03;;;7.57;;
81627;SDS011;71036;51.102;6.514;2023-10-09T07:55:45;24.50;;;7.67;;
81627;SDS011;71036;51.102;6.514;2023-10-09T07:58:20;19.83;;;8.37;;
81627;SDS011;71036;51.102;6.514;2023-10-09T08:00:56;17.23;;;7.13;;
81627;SDS011;71036;51.102;6.514;2023-10-09T08:03:32;18.43;;;8.10;;
81627;SDS011;71036;51.102;6.514;2023-10-09T08:05:59;14.13;;;7.00;;
81627;SDS011;71036;51.102;6.514;2023-10-09T08:08:43;14.97;;;7.47;;
81627;SDS011;71036;51.102;6.514;2023-10-09T08:11:29;14.30;;;6.97;;
81627;SDS011;71036;51.102;6.514;2023-10-09T08:14:04;17.23;;;7.87;;
81627;SDS011;71036;51.102;6.514;2023-10-09T08:16:53;22.50;;;8.13;;
81627;SDS011;71036;51.102;6.514;2023-10-09T08:19:36;15.33;;;7.07;;
81627;SDS011;71036;51.102;6.514;2023-10-09T08:22:16;18.30;;;7.63;;
81627;SDS011;71036;51.102;6.514;2023-10-09T08:25:09;17.93;;;7.50;;
81627;SDS011;71036;51.102;6.514;2023-10-09T08:27:51;14.50;;;7.10;;
81627;SDS011;71036;51.102;6.514;2023-10-09T08:30:21;20.90;;;7.47;;
81627;SDS011;71036;51.102;6.514;2023-10-09T08:32:49;21.17;;;7.07;;
81627;SDS011;71036;51.102;6.514;2023-10-09T08:35:31;22.00;;;7.47;;
81627;SDS011;71036;51.102;6.514;2023-10-09T08:38:11;18.63;;;6.80;;
81627;SDS011;71036;51.102;6.514;2023-10-09T08:40:37;14.23;;;6.97;;
81627;SDS011;71036;51.102;6.514;2023-10-09T08:43:15;17.13;;;6.97;;
81627;SDS011;71036;51.102;6.514;2023-10-09T08:45:45;26.73;;;7.93;;
81627;SDS011;71036;51.102;6.514;2023-10-09T08:48:11;11.67;;;6.73;;
81627;SDS011;71036;51.102;6.514;2023-10-09T08:50:40;22.47;;;7.27;;
81627;SDS011;71036;51.102;6.514;2023-10-09T08:53:07;17.80;;;7.50;;
81627;SDS011;71036;51.102;6.514;2023-10-09T08:55:35;15.40;;;7.33;;
81627;SDS011;71036;51.102;6.514;2023-10-09T08:58:01;19.83;;;6.97;;
81627;SDS011;71036;51.102;6.514;2023-10-09T09:00:30;16.70;;;6.60;;
81627;SDS011;71036;51.102;6.514;2023-10-09T09:02:58;18.00;;;7.67;;
81627;SDS011;71036;51.102;6.514;2023-10-09T09:05:25;17.10;;;7.10;;
81627;SDS011;71036;51.102;6.514;2023-10-09T09:07:53;16.27;;;5.93;;
81627;SDS011;71036;51.102;6.514;2023-10-09T09:10:26;18.23;;;7.83;;
81627;SDS011;71036;51.102;6.514;2023-10-09T09:13:00;14.23;;;7.37;;
81627;SDS011;71036;51.102;6.514;2023-10-09T09:15:31;16.93;;;6.10;;
81627;SDS011;71036;51.102;6.514;2023-10-09T09:18:04;18.30;;;7.90;;
81627;SDS011;71036;51.102;6.514;2023-10-09T09:20:31;15.07;;;7.03;;
81627;SDS011;71036;51.102;6.514;2023-10-09T09:22:59;20.00;;;7.03;;
81627;SDS011;71036;51.102;6.514;2023-10-09T09:25:50;15.27;;;5.87;;
81627;SDS011;71036;51.102;6.514;2023-10-09T09:28:24;18.87;;;6.43;;
81627;SDS011;71036;51.102;6.514;2023-10-09T09:30:51;15.57;;;6.27;;
81627;SDS011;71036;51.102;6.514;2023-10-09T09:36:01;14.50;;;6.77;;
81627;SDS011;71036;51.102;6.514;2023-10-09T09:38:29;14.63;;;7.00;;
81627;SDS011;71036;51.102;6.514;2023-10-09T09:41:06;12.17;;;5.83;;
81627;SDS011;71036;51.102;6.514;2023-10-09T09:43:33;13.23;;;5.60;;
81627;SDS011;71036;51.102;6.514;2023-10-09T09:46:00;23.37;;;6.30;;
81627;SDS011;71036;51.102;6.514;2023-10-09T09:48:29;13.83;;;6.33;;
81627;SDS011;71036;51.102;6.514;2023-10-09T09:50:57;18.60;;;7.50;;
81627;SDS011;71036;51.102;6.514;2023-10-09T09:53:22;21.27;;;6.70;;
81627;SDS011;71036;51.102;6.514;2023-10-09T09:55:52;10.93;;;5.10;;
81627;SDS011;71036;51.102;6.514;2023-10-09T09:58:25;15.90;;;5.60;;
81627;SDS011;71036;51.102;6.514;2023-10-09T10:01:09;14.43;;;6.37;;
81627;SDS011;71036;51.102;6.514;2023-10-09T10:03:50;20.20;;;6.13;;
81627;SDS011;71036;51.102;6.514;2023-10-09T10:06:21;17.97;;;6.53;;
81627;SDS011;71036;51.102;6.514;2023-10-09T10:08:50;16.93;;;6.73;;
81627;SDS011;71036;51.102;6.514;2023-10-09T10:14:11;13.93;;;6.60;;
81627;SDS011;71036;51.102;6.514;2023-10-09T10:17:03;21.83;;;5.67;;
81627;SDS011;71036;51.102;6.514;2023-10-09T10:22:42;16.77;;;5.47;;
81627;SDS011;71036;51.102;6.514;2023-10-09T10:25:31;15.17;;;6.30;;
81627;SDS011;71036;51.102;6.514;2023-10-09T10:28:15;14.60;;;5.70;;
81627;SDS011;71036;51.102;6.514;2023-10-09T10:30:47;23.43;;;7.03;;
81627;SDS011;71036;51.102;6.514;2023-10-09T10:33:15;12.00;;;5.57;;
81627;SDS011;71036;51.102;6.514;2023-10-09T10:35:41;8.83;;;4.30;;
81627;SDS011;71036;51.102;6.514;2023-10-09T10:38:25;14.03;;;5.53;;
81627;SDS011;71036;51.102;6.514;2023-10-09T10:41:07;13.20;;;5.63;;
81627;SDS011;71036;51.102;6.514;2023-10-09T10:43:41;15.40;;;5.00;;
81627;SDS011;71036;51.102;6.514;2023-10-09T10:46:19;15.97;;;5.80;;
81627;SDS011;71036;51.102;6.514;2023-10-09T10:48:52;11.60;;;4.90;;
81627;SDS011;71036;51.102;6.514;2023-10-09T10:51:24;13.47;;;6.00;;
81627;SDS011;71036;51.102;6.514;2023-10-09T10:54:00;16.70;;;4.73;;
81627;SDS011;71036;51.102;6.514;2023-10-09T10:56:47;8.87;;;4.60;;
81627;SDS011;71036;51.102;6.514;2023-10-09T10:59:13;20.33;;;6.50;;
81627;SDS011;71036;51.102;6.514;2023-10-09T11:01:38;9.93;;;5.37;;
81627;SDS011;71036;51.102;6.514;2023-10-09T11:04:27;13.70;;;5.83;;
81627;SDS011;71036;51.102;6.514;2023-10-09T11:06:56;14.20;;;5.57;;
81627;SDS011;71036;51.102;6.514;2023-10-09T11:09:53;11.13;;;5.73;;
81627;SDS011;71036;51.102;6.514;2023-10-09T11:12:23;14.90;;;5.17;;
81627;SDS011;71036;51.102;6.514;2023-10-09T11:14:49;15.27;;;5.97;;
81627;SDS011;71036;51.102;6.514;2023-10-09T11:18:03;13.43;;;5.70;;
81627;SDS011;71036;51.102;6.514;2023-10-09T11:20:33;15.73;;;6.00;;
81627;SDS011;71036;51.102;6.514;2023-10-09T11:22:59;17.30;;;6.63;;
81627;SDS011;71036;51.102;6.514;2023-10-09T11:25:38;17.50;;;7.13;;
81627;SDS011;71036;51.102;6.514;2023-10-09T11:28:17;16.30;;;6.53;;
81627;SDS011;71036;51.102;6.514;2023-10-09T11:31:12;15.40;;;6.00;;
81627;SDS011;71036;51.102;6.514;2023-10-09T11:33:45;17.07;;;6.53;;
81627;SDS011;71036;51.102;6.514;2023-10-09T11:36:14;14.50;;;5.53;;
81627;SDS011;71036;51.102;6.514;2023-10-09T11:38:46;15.60;;;6.43;;
81627;SDS011;71036;51.102;6.514;2023-10-09T11:41:15;15.50;;;6.80;;
81627;SDS011;71036;51.102;6.514;2023-10-09T11:43:45;16.03;;;6.30;;
81627;SDS011;71036;51.102;6.514;2023-10-09T11:46:17;14.20;;;7.40;;
81627;SDS011;71036;51.102;6.514;2023-10-09T11:49:09;14.50;;;6.97;;
81627;SDS011;71036;51.102;6.514;2023-10-09T11:51:41;12.77;;;6.83;;
81627;SDS011;71036;51.102;6.514;2023-10-09T11:54:29;13.37;;;7.30;;
81627;SDS011;71036;51.102;6.514;2023-10-09T11:56:56;18.83;;;5.60;;
81627;SDS011;71036;51.102;6.514;2023-10-09T11:59:21;14.27;;;6.73;;
81627;SDS011;71036;51.102;6.514;2023-10-09T12:01:48;16.20;;;7.13;;
81627;SDS011;71036;51.102;6.514;2023-10-09T12:04:17;17.93;;;6.03;;
81627;SDS011;71036;51.102;6.514;2023-10-09T12:06:43;19.93;;;8.07;;
81627;SDS011;71036;51.102;6.514;2023-10-09T12:09:09;16.30;;;7.10;;
81627;SDS011;71036;51.102;6.514;2023-10-09T12:11:41;18.43;;;5.97;;
81627;SDS011;71036;51.102;6.514;2023-10-09T12:14:07;17.03;;;5.97;;
81627;SDS011;71036;51.102;6.514;2023-10-09T12:16:32;18.00;;;6.60;;
81627;SDS011;71036;51.102;6.514;2023-10-09T12:18:57;18.40;;;6.33;;
81627;SDS011;71036;51.102;6.514;2023-10-09T12:21:24;19.97;;;6.60;;
81627;SDS011;71036;51.102;6.514;2023-10-09T12:23:53;21.10;;;6.53;;
81627;SDS011;71036;51.102;6.514;2023-10-09T12:26:22;16.50;;;5.90;;
81627;SDS011;71036;51.102;6.514;2023-10-09T12:28:47;17.43;;;7.00;;
81627;SDS011;71036;51.102;6.514;2023-10-09T12:31:15;13.20;;;5.60;;
81627;SDS011;71036;51.102;6.514;2023-10-09T12:33:40;16.50;;;7.63;;
81627;SDS011;71036;51.102;6.514;2023-10-09T12:36:11;11.90;;;5.57;;
81627;SDS011;71036;51.102;6.514;2023-10-09T12:38:42;16.43;;;6.10;;
81627;SDS011;71036;51.102;6.514;2023-10-09T12:41:11;10.60;;;5.30;;
81627;SDS011;71036;51.102;6.514;2023-10-09T12:43:51;14.10;;;6.40;;
81627;SDS011;71036;51.102;6.514;2023-10-09T12:46:17;17.77;;;8.33;;
81627;SDS011;71036;51.102;6.514;2023-10-09T12:48:47;17.53;;;7.27;;
81627;SDS011;71036;51.102;6.514;2023-10-09T12:51:13;20.80;;;6.97;;
81627;SDS011;71036;51.102;6.514;2023-10-09T12:53:42;12.40;;;5.80;;
81627;SDS011;71036;51.102;6.514;2023-10-09T12:56:08;14.50;;;7.10;;
81627;SDS011;71036;51.102;6.514;2023-10-09T12:58:34;15.73;;;6.07;;
81627;SDS011;71036;51.102;6.514;2023-10-09T13:01:02;17.00;;;5.93;;
81627;SDS011;71036;51.102;6.514;2023-10-09T13:03:34;11.67;;;5.37;;
81627;SDS011;71036;51.102;6.514;2023-10-09T13:06:03;11.50;;;5.77;;
81627;SDS011;71036;51.102;6.514;2023-10-09T13:08:35;11.83;;;6.47;;
81627;SDS011;71036;51.102;6.514;2023-10-09T13:11:04;12.13;;;4.93;;
81627;SDS011;71036;51.102;6.514;2023-10-09T13:13:37;15.93;;;5.93;;
81627;SDS011;71036;51.102;6.514;2023-10-09T13:16:15;12.07;;;5.03;;
81627;SDS011;71036;51.102;6.514;2023-10-09T13:18:52;15.63;;;6.20;;
81627;SDS011;71036;51.102;6.514;2023-10-09T13:21:19;11.97;;;5.70;;
81627;SDS011;71036;51.102;6.514;2023-10-09T13:23:49;16.70;;;6.00;;
81627;SDS011;71036;51.102;6.514;2023-10-09T13:26:16;10.10;;;5.30;;
81627;SDS011;71036;51.102;6.514;2023-10-09T13:28:46;13.23;;;5.10;;
81627;SDS011;71036;51.102;6.514;2023-10-09T13:31:13;12.53;;;5.33;;
81627;SDS011;71036;51.102;6.514;2023-10-09T13:33:39;16.20;;;5.97;;
81627;SDS011;71036;51.102;6.514;2023-10-09T13:36:05;10.57;;;6.07;;
81627;SDS011;71036;51.102;6.514;2023-10-09T13:38:40;13.33;;;6.03;;
81627;SDS011;71036;51.102;6.514;2023-10-09T13:41:08;11.63;;;5.57;;
81627;SDS011;71036;51.102;6.514;2023-10-09T13:43:38;17.40;;;6.00;;
81627;SDS011;71036;51.102;6.514;2023-10-09T13:46:05;12.63;;;4.90;;
81627;SDS011;71036;51.102;6.514;2023-10-09T13:48:31;9.77;;;4.70;;
81627;SDS011;71036;51.102;6.514;2023-10-09T13:51:02;13.37;;;5.50;;
81627;SDS011;71036;51.102;6.514;2023-10-09T13:53:32;10.23;;;5.60;;
81627;SDS011;71036;51.102;6.514;2023-10-09T13:55:57;13.97;;;5.97;;
81627;SDS011;71036;51.102;6.514;2023-10-09T13:58:23;12.80;;;4.83;;
81627;SDS011;71036;51.102;6.514;2023-10-09T14:00:49;17.40;;;5.50;;
81627;SDS011;71036;51.102;6.514;2023-10-09T14:03:18;11.80;;;5.67;;
81627;SDS011;71036;51.102;6.514;2023-10-09T14:05:44;15.57;;;6.10;;
81627;SDS011;71036;51.102;6.514;2023-10-09T14:08:22;10.23;;;5.80;;
81627;SDS011;71036;51.102;6.514;2023-10-09T14:10:48;12.90;;;5.50;;
81627;SDS011;71036;51.102;6.514;2023-10-09T14:13:15;14.53;;;5.13;;
81627;SDS011;71036;51.102;6.514;2023-10-09T14:15:51;9.30;;;5.40;;
81627;SDS011;71036;51.102;6.514;2023-10-09T14:18:17;11.27;;;5.30;;
81627;SDS011;71036;51.102;6.514;2023-10-09T14:20:42;9.70;;;5.27;;
81627;SDS011;71036;51.102;6.514;2023-10-09T14:23:08;12.27;;;5.97;;
81627;SDS011;71036;51.102;6.514;2023-10-09T14:25:36;13.20;;;6.27;;
81627;SDS011;71036;51.102;6.514;2023-10-09T14:28:08;13.53;;;5.50;;
81627;SDS011;71036;51.102;6.514;2023-10-09T14:30:34;12.83;;;6.40;;
81627;SDS011;71036;51.102;6.514;2023-10-09T14:33:07;17.37;;;7.37;;
81627;SDS011;71036;51.102;6.514;2023-10-09T14:35:37;14.33;;;5.13;;
81627;SDS011;71036;51.102;6.514;2023-10-09T14:38:04;14.20;;;5.37;;
81627;SDS011;71036;51.102;6.514;2023-10-09T14:40:36;16.07;;;6.30;;
81627;SDS011;71036;51.102;6.514;2023-10-09T14:43:06;14.93;;;5.30;;
81627;SDS011;71036;51.102;6.514;2023-10-09T14:45:36;11.80;;;6.30;;
81627;SDS011;71036;51.102;6.514;2023-10-09T14:48:01;11.27;;;5.20;;
81627;SDS011;71036;51.102;6.514;2023-10-09T14:50:26;18.93;;;5.90;;
81627;SDS011;71036;51.102;6.514;2023-10-09T14:52:52;18.03;;;6.00;;
81627;SDS011;71036;51.102;6.514;2023-10-09T14:55:17;20.87;;;6.67;;
81627;SDS011;71036;51.102;6.514;2023-10-09T14:57:56;15.63;;;6.80;;
81627;SDS011;71036;51.102;6.514;2023-10-09T15:00:23;15.53;;;6.30;;
81627;SDS011;71036;51.102;6.514;2023-10-09T15:02:52;17.33;;;7.10;;
81627;SDS011;71036;51.102;6.514;2023-10-09T15:05:17;10.90;;;5.73;;
81627;SDS011;71036;51.102;6.514;2023-10-09T15:07:43;14.00;;;6.70;;
81627;SDS011;71036;51.102;6.514;2023-10-09T15:10:08;13.47;;;6.80;;
81627;SDS011;71036;51.102;6.514;2023-10-09T15:12:40;11.87;;;5.97;;
81627;SDS011;71036;51.102;6.514;2023-10-09T15:15:08;13.77;;;6.40;;
81627;SDS011;71036;51.102;6.514;2023-10-09T15:17:42;13.73;;;6.17;;